createdAt,value
2019-05-01T00:03:33.999Z,19.90
2019-05-01T00:08:33.946Z,23.13
2019-05-01T00:13:33.674Z,18.77
2019-05-01T00:18:33.410Z,18.60
2019-05-01T00:23:33.078Z,19.50
2019-05-01T00:28:32.797Z,23.23
2019-05-01T00:33:32.456Z,27.33
2019-05-01T00:38:32.090Z,22.03
2019-05-01T00:43:31.752Z,22.67
2019-05-01T00:48:32.712Z,17.80
2019-05-01T00:53:32.429Z,22.90
2019-05-01T00:58:43.568Z,23.60
2019-05-01T01:03:43.427Z,22.40
2019-05-01T01:08:43.174Z,21.73
2019-05-01T01:13:42.830Z,23.93
2019-05-01T01:18:42.826Z,20.50
2019-05-01T01:23:43.103Z,25.10
2019-05-01T01:28:42.779Z,15.00
2019-05-01T01:33:42.411Z,19.20
2019-05-01T01:38:42.482Z,17.73
2019-05-01T01:44:14.659Z,18.30
2019-05-01T01:49:15.111Z,17.97
2019-05-01T01:54:14.918Z,20.47
2019-05-01T01:59:14.842Z,18.90
2019-05-01T02:04:33.675Z,21.80
2019-05-01T02:09:33.415Z,18.93
2019-05-01T02:14:33.142Z,18.77
2019-05-01T02:19:32.906Z,18.70
2019-05-01T02:24:32.867Z,18.50
2019-05-01T02:29:39.221Z,16.37
2019-05-01T02:34:39.826Z,20.03
2019-05-01T02:39:39.838Z,20.47
2019-05-01T02:44:46.843Z,15.70
2019-05-01T02:49:52.399Z,21.40
2019-05-01T02:54:54.560Z,20.47
2019-05-01T02:59:56.032Z,13.70
2019-05-01T03:04:56.939Z,11.90
2019-05-01T03:09:58.023Z,20.20
2019-05-01T03:15:00.892Z,16.83
2019-05-01T03:20:21.164Z,16.30
2019-05-01T03:25:20.991Z,16.47
2019-05-01T03:30:20.796Z,14.17
2019-05-01T03:35:20.555Z,16.07
2019-05-01T03:40:21.067Z,13.57
2019-05-01T03:45:21.188Z,15.00
2019-05-01T03:50:20.991Z,14.07
2019-05-01T03:55:20.715Z,14.27
2019-05-01T04:00:29.099Z,17.60
2019-05-01T04:05:29.292Z,14.97
2019-05-01T04:10:29.263Z,11.87
2019-05-01T04:15:29.170Z,13.20
2019-05-01T04:20:30.156Z,12.83
2019-05-01T04:25:29.872Z,12.03
2019-05-01T04:30:57.583Z,12.33
2019-05-01T04:36:06.151Z,11.57
2019-05-01T04:41:06.247Z,13.53
2019-05-01T04:46:06.077Z,14.07
2019-05-01T04:51:06.028Z,10.37
2019-05-01T04:56:05.827Z,11.00
2019-05-01T05:01:05.646Z,10.07
2019-05-01T05:06:05.570Z,11.43
2019-05-01T05:11:10.783Z,8.87
2019-05-01T05:16:35.719Z,9.33
2019-05-01T05:21:35.910Z,9.47
2019-05-01T05:26:35.546Z,9.83
2019-05-01T05:31:37.127Z,9.40
2019-05-01T05:36:40.667Z,9.00
2019-05-01T05:41:40.847Z,7.27
2019-05-01T05:46:40.697Z,7.60
2019-05-01T05:51:48.719Z,7.60
2019-05-01T05:56:54.607Z,9.67
2019-05-01T06:02:10.291Z,7.63
2019-05-01T06:07:18.822Z,9.07
2019-05-01T06:12:32.399Z,6.10
2019-05-01T06:17:51.207Z,8.40
2019-05-01T06:23:08.350Z,9.43
2019-05-01T06:28:08.683Z,8.57
2019-05-01T06:33:09.433Z,6.20
2019-05-01T06:38:14.556Z,7.10
2019-05-01T06:43:56.979Z,5.50
2019-05-01T06:49:01.418Z,10.40
2019-05-01T06:54:01.518Z,7.90
2019-05-01T06:59:01.698Z,7.33
2019-05-01T07:04:03.812Z,6.50
2019-05-01T07:09:07.022Z,7.03
2019-05-01T07:14:11.010Z,5.43
2019-05-01T07:19:10.555Z,6.03
2019-05-01T07:24:10.357Z,6.87
2019-05-01T07:29:13.246Z,5.67
2019-05-01T07:34:16.739Z,4.33
2019-05-01T07:39:15.808Z,5.10
2019-05-01T07:44:34.983Z,6.33
2019-05-01T07:49:54.720Z,4.77
2019-05-01T07:54:56.579Z,4.40
2019-05-01T07:59:58.204Z,3.50
2019-05-01T08:04:58.286Z,4.87
2019-05-01T08:09:58.022Z,4.30
2019-05-01T08:14:57.755Z,5.30
2019-05-01T08:20:02.755Z,3.93
2019-05-01T08:25:02.414Z,4.20
2019-05-01T08:30:27.363Z,3.33
2019-05-01T08:35:31.834Z,4.10
2019-05-01T08:40:30.431Z,3.97
2019-05-01T08:45:43.575Z,4.60
2019-05-01T08:50:43.307Z,2.47
2019-05-01T08:55:44.998Z,4.83
2019-05-01T09:00:44.430Z,3.80
2019-05-01T09:05:44.453Z,4.27
2019-05-01T09:10:49.454Z,3.93
2019-05-01T09:15:49.396Z,3.97
2019-05-01T09:20:51.308Z,3.60
2019-05-01T09:26:16.689Z,3.60
2019-05-01T09:31:18.231Z,4.07
2019-05-01T09:36:17.971Z,3.80
2019-05-01T09:41:17.935Z,2.80
2019-05-01T09:46:17.727Z,3.33
2019-05-01T09:51:51.693Z,4.20
2019-05-01T09:56:52.572Z,3.37
2019-05-01T10:01:52.295Z,4.17
2019-05-01T10:06:54.015Z,3.50
2019-05-01T10:11:53.531Z,2.97
2019-05-01T10:16:53.231Z,3.77
2019-05-01T10:21:52.883Z,4.00
2019-05-01T10:26:55.267Z,3.20
2019-05-01T10:32:21.646Z,3.20
2019-05-01T10:37:19.170Z,4.50
2019-05-01T10:42:18.819Z,2.97
2019-05-01T10:47:18.534Z,3.30
2019-05-01T10:52:19.434Z,3.07
2019-05-01T10:57:19.176Z,3.20
2019-05-01T11:02:19.572Z,2.80
2019-05-01T11:07:19.297Z,4.20
2019-05-01T11:12:20.145Z,2.30
2019-05-01T11:17:19.955Z,4.40
2019-05-01T11:22:19.674Z,2.73
2019-05-01T11:27:19.755Z,4.30
2019-05-01T11:32:26.572Z,3.80
2019-05-01T11:37:57.710Z,3.90
2019-05-01T11:42:58.078Z,3.40
2019-05-01T11:47:57.999Z,3.67
2019-05-01T11:52:57.614Z,3.73
2019-05-01T11:57:57.386Z,4.50
2019-05-01T12:02:57.143Z,2.83
2019-05-01T12:07:56.791Z,5.07
2019-05-01T12:12:56.524Z,4.20
2019-05-01T12:17:56.227Z,4.37
2019-05-01T12:22:55.866Z,6.00
2019-05-01T12:27:55.700Z,5.90
2019-05-01T12:32:56.318Z,4.20
2019-05-01T12:37:58.407Z,3.90
2019-05-01T12:42:58.055Z,5.47
2019-05-01T12:48:02.911Z,5.57
2019-05-01T12:53:10.913Z,4.80
2019-05-01T12:58:10.571Z,4.67
2019-05-01T13:03:10.280Z,4.93
2019-05-01T13:08:11.336Z,5.40
2019-05-01T13:13:11.393Z,6.10
2019-05-01T13:18:12.043Z,6.90
2019-05-01T13:23:11.684Z,4.60
2019-05-01T13:28:26.201Z,3.93
2019-05-01T13:33:25.937Z,5.80
2019-05-01T13:38:26.551Z,3.93
2019-05-01T13:43:26.211Z,5.13
2019-05-01T13:48:27.173Z,6.80
2019-05-01T13:53:27.156Z,6.07
2019-05-01T13:58:26.894Z,6.37
2019-05-01T14:03:26.858Z,6.03
2019-05-01T14:08:26.695Z,4.00
2019-05-01T14:13:26.429Z,5.70
2019-05-01T14:18:26.127Z,4.40
2019-05-01T14:23:45.119Z,7.57
2019-05-01T14:28:44.847Z,6.30
2019-05-01T14:33:44.558Z,6.37
2019-05-01T14:38:44.306Z,5.90
2019-05-01T14:43:43.974Z,6.30
2019-05-01T14:48:44.758Z,5.47
2019-05-01T14:53:44.492Z,5.03
2019-05-01T14:58:44.154Z,7.13
2019-05-01T15:03:43.850Z,4.10
2019-05-01T15:08:43.486Z,3.73
2019-05-01T15:13:50.083Z,4.63
2019-05-01T15:19:04.527Z,6.10
2019-05-01T15:24:05.614Z,6.77
2019-05-01T15:29:05.414Z,4.07
2019-05-01T15:34:05.224Z,5.13
2019-05-01T15:39:09.098Z,4.30
2019-05-01T15:44:24.069Z,3.73
2019-05-01T15:49:23.759Z,4.00
2019-05-01T15:54:23.378Z,4.57
2019-05-01T15:59:23.392Z,3.97
2019-05-01T16:04:23.158Z,5.20
2019-05-01T16:09:22.999Z,5.60
2019-05-01T16:14:22.843Z,5.43
2019-05-01T16:19:22.903Z,5.47
2019-05-01T16:24:22.696Z,7.47
2019-05-01T16:29:22.343Z,7.50
2019-05-01T16:34:22.032Z,6.97
2019-05-01T16:39:52.899Z,7.33
2019-05-01T16:44:52.563Z,6.03
2019-05-01T16:49:52.234Z,6.57
2019-05-01T16:54:59.067Z,7.30
2019-05-01T16:59:53.563Z,7.10
2019-05-01T17:04:58.203Z,8.13
2019-05-01T17:10:10.390Z,8.60
2019-05-01T17:15:11.114Z,5.83
2019-05-01T17:20:11.207Z,8.20
2019-05-01T17:25:11.498Z,7.47
2019-05-01T17:30:17.213Z,7.33
2019-05-01T17:35:16.961Z,7.73
2019-05-01T17:40:16.746Z,8.10
2019-05-01T17:45:16.578Z,7.20
2019-05-01T17:50:21.012Z,5.27
2019-05-01T17:55:18.114Z,4.57
2019-05-01T18:00:35.480Z,7.23
2019-05-01T18:06:01.489Z,7.53
2019-05-01T18:10:58.788Z,7.67
2019-05-01T18:15:58.516Z,6.93
2019-05-01T18:20:58.138Z,9.80
2019-05-01T18:26:08.797Z,8.90
2019-05-01T18:31:10.670Z,5.87
2019-05-01T18:36:10.482Z,8.00
2019-05-01T18:41:17.390Z,7.80
2019-05-01T18:46:17.270Z,6.50
2019-05-01T18:51:17.601Z,5.50
2019-05-01T18:56:17.674Z,7.07
2019-05-01T19:01:17.842Z,6.73
2019-05-01T19:06:17.567Z,6.30
2019-05-01T19:11:18.700Z,7.57
2019-05-01T19:16:18.404Z,5.20
2019-05-01T19:21:23.607Z,5.80
2019-05-01T19:26:23.937Z,4.70
2019-05-01T19:31:24.627Z,6.10
2019-05-01T19:36:24.474Z,4.63
2019-05-01T19:41:25.187Z,5.70
2019-05-01T19:46:24.903Z,7.40
2019-05-01T19:51:26.052Z,6.50
2019-05-01T19:56:25.979Z,6.13
2019-05-01T20:01:25.654Z,6.07
2019-05-01T20:06:25.433Z,5.03
2019-05-01T20:11:25.237Z,7.03
2019-05-01T20:16:25.267Z,5.30
2019-05-01T20:21:25.252Z,6.57
2019-05-01T20:26:26.942Z,5.10
2019-05-01T20:31:28.236Z,4.67
2019-05-01T20:36:28.399Z,5.63
2019-05-01T20:41:28.103Z,4.80
2019-05-01T20:46:28.038Z,4.97
2019-05-01T20:51:27.938Z,5.37
2019-05-01T20:56:38.863Z,4.13
2019-05-01T21:01:38.735Z,5.47
2019-05-01T21:06:43.681Z,5.43
2019-05-01T21:11:47.279Z,5.87
2019-05-01T21:16:46.363Z,4.27
2019-05-01T21:21:46.005Z,5.67
2019-05-01T21:26:45.655Z,4.93
2019-05-01T21:31:45.375Z,6.30
2019-05-01T21:36:47.654Z,4.97
2019-05-01T21:41:46.448Z,5.67
2019-05-01T21:46:46.106Z,5.30
2019-05-01T21:51:46.288Z,6.30
2019-05-01T21:56:47.529Z,5.10
2019-05-01T22:01:47.398Z,5.13
2019-05-01T22:06:51.922Z,3.80
2019-05-01T22:11:48.766Z,6.60
2019-05-01T22:16:53.139Z,5.33
2019-05-01T22:22:10.222Z,6.13
2019-05-01T22:27:27.309Z,6.00
2019-05-01T22:32:33.958Z,4.80
2019-05-01T22:37:33.375Z,5.43
2019-05-01T22:42:33.182Z,4.87
2019-05-01T22:47:32.954Z,4.03
2019-05-01T22:52:33.090Z,5.07
2019-05-01T22:57:32.730Z,4.67
2019-05-01T23:02:38.139Z,5.27
2019-05-01T23:07:37.974Z,4.40
2019-05-01T23:12:37.976Z,4.03
2019-05-01T23:17:43.838Z,5.70
2019-05-01T23:22:43.529Z,4.83
2019-05-01T23:27:44.334Z,3.60
2019-05-01T23:32:44.391Z,3.90
2019-05-01T23:37:44.050Z,3.87
2019-05-01T23:42:52.329Z,5.53
2019-05-01T23:47:46.137Z,4.77
2019-05-01T23:52:45.774Z,5.30
2019-05-01T23:57:45.434Z,5.93
